地図

経路データ

SID SEASON NUMBER BASIN SUBBASIN NAME ISO_TIME NATURE LAT LON WMO_WIND WMO_PRES WMO_AGENCY TRACK_TYPE DIST2LAND LANDFALL IFLAG USA_AGENCY USA_ATCF_ID USA_LAT USA_LON USA_RECORD USA_STATUS USA_WIND USA_PRES USA_SSHS USA_R34_NE USA_R34_SE USA_R34_SW USA_R34_NW USA_R50_NE USA_R50_SE USA_R50_SW USA_R50_NW USA_R64_NE USA_R64_SE USA_R64_SW USA_R64_NW USA_POCI USA_ROCI USA_RMW USA_EYE TOKYO_LAT TOKYO_LON TOKYO_GRADE TOKYO_WIND TOKYO_PRES TOKYO_R50_DIR TOKYO_R50_LONG TOKYO_R50_SHORT TOKYO_R30_DIR TOKYO_R30_LONG TOKYO_R30_SHORT TOKYO_LAND CMA_LAT CMA_LON CMA_CAT CMA_WIND CMA_PRES HKO_LAT HKO_LON HKO_CAT HKO_WIND HKO_PRES NEWDELHI_LAT NEWDELHI_LON NEWDELHI_GRADE NEWDELHI_WIND NEWDELHI_PRES NEWDELHI_CI NEWDELHI_DP NEWDELHI_POCI REUNION_LAT REUNION_LON REUNION_TYPE REUNION_WIND REUNION_PRES REUNION_TNUM REUNION_CI REUNION_RMW REUNION_R34_NE REUNION_R34_SE REUNION_R34_SW REUNION_R34_NW REUNION_R50_NE REUNION_R50_SE REUNION_R50_SW REUNION_R50_NW REUNION_R64_NE REUNION_R64_SE REUNION_R64_SW REUNION_R64_NW BOM_LAT BOM_LON BOM_TYPE BOM_WIND BOM_PRES BOM_TNUM BOM_CI BOM_RMW BOM_R34_NE BOM_R34_SE BOM_R34_SW BOM_R34_NW BOM_R50_NE BOM_R50_SE BOM_R50_SW BOM_R50_NW BOM_R64_NE BOM_R64_SE BOM_R64_SW BOM_R64_NW BOM_ROCI BOM_POCI BOM_EYE BOM_POS_METHOD BOM_PRES_METHOD NADI_LAT NADI_LON NADI_CAT NADI_WIND NADI_PRES WELLINGTON_LAT WELLINGTON_LON WELLINGTON_WIND WELLINGTON_PRES DS824_LAT DS824_LON DS824_STAGE DS824_WIND DS824_PRES TD9636_LAT TD9636_LON TD9636_STAGE TD9636_WIND TD9636_PRES TD9635_LAT TD9635_LON TD9635_WIND TD9635_PRES TD9635_ROCI NEUMANN_LAT NEUMANN_LON NEUMANN_CLASS NEUMANN_WIND NEUMANN_PRES MLC_LAT MLC_LON MLC_CLASS MLC_WIND MLC_PRES USA_GUST BOM_GUST BOM_GUST_PER REUNION_GUST REUNION_GUST_PER USA_SEAHGT USA_SEARAD_NE USA_SEARAD_SE USA_SEARAD_SW USA_SEARAD_NW STORM_SPEED STORM_DIR
1958291N11103 1958 99 WP MM NOT_NAMED 1958-10-17 12:00:00 NR 10.6000 102.900 main 40 31 __________O___ -1 10.6000 102.900 1 4 320
1958291N11103 1958 99 WP MM NOT_NAMED 1958-10-17 15:00:00 NR 10.7421 102.780 main 39 34 __________P___ -1 10.7421 102.780 1 4 318
1958291N11103 1958 99 WP MM NOT_NAMED 1958-10-17 18:00:00 NR 10.8774 102.648 main 54 54 __________P___ -1 10.8774 102.648 1 4 312
1958291N11103 1958 99 WP MM NOT_NAMED 1958-10-17 21:00:00 NR 10.9990 102.492 main 65 65 __________P___ -1 10.9990 102.492 1 4 303
1958291N11103 1958 99 WP MM NOT_NAMED 1958-10-18 00:00:00 NR 11.1000 102.300 main 87 87 __________O___ -1 11.1000 102.300 1 5 293
1958291N11103 1958 99 WP MM NOT_NAMED 1958-10-18 03:00:00 NR 11.1742 102.067 main 103 103 __________P___ -1 11.1742 102.067 1 5 284
1958291N11103 1958 99 WP MM NOT_NAMED 1958-10-18 06:00:00 NR 11.2176 101.808 main 124 124 __________P___ -1 11.2176 101.808 1 5 276
1958291N11103 1958 99 WP MM NOT_NAMED 1958-10-18 09:00:00 NR 11.2273 101.545 main 141 141 __________P___ -1 11.2273 101.545 1 5 268
1958291N11103 1958 99 WP MM NOT_NAMED 1958-10-18 12:00:00 NR 11.2000 101.300 main 156 156 __________O___ -1 11.2000 101.300 1 4 253
1958291N11103 1958 99 WP MM NOT_NAMED 1958-10-18 15:00:00 NR 11.1032 101.128 main 164 154 __________P___ -1 11.1032 101.128 1 4 235
1958291N11103 1958 99 WP MM NOT_NAMED 1958-10-18 18:00:00 NR 10.9772 100.972 main 154 135 __________P___ -1 10.9772 100.972 1 4 233
1958291N11103 1958 99 WP MM NOT_NAMED 1958-10-18 21:00:00 NR 10.8626 100.806 main 135 118 __________P___ -1 10.8626 100.806 1 4 244
1958291N11103 1958 99 WP MM NOT_NAMED 1958-10-19 00:00:00 NR 10.8000 100.600 main 118 88 __________O___ -1 10.8000 100.600 1 5 263
1958291N11103 1958 99 WP MM NOT_NAMED 1958-10-19 03:00:00 NR 10.7941 100.274 main 88 45 __________P___ -1 10.7941 100.274 1 7 274
1958291N11103 1958 99 NI BB NOT_NAMED 1958-10-19 06:00:00 NR 10.8505 99.9127 main 43 10 __________P___ -1 10.8505 99.9127 1 7 285
1958291N11103 1958 99 NI BB NOT_NAMED 1958-10-19 09:00:00 NR 10.9816 99.5705 main 10 0 __________P___ -1 10.9816 99.5705 1 7 300
1958291N11103 1958 99 NI BB NOT_NAMED 1958-10-19 12:00:00 NR 11.2000 99.3000 main 0 0 __________O___ -1 11.2000 99.3000 1 6 332
1958291N11103 1958 99 NI BB NOT_NAMED 1958-10-19 15:00:00 NR 11.5415 99.2634 main 0 0 __________P___ -1 11.5415 99.2634 1 8 0
1958291N11103 1958 99 NI BB NOT_NAMED 1958-10-19 18:00:00 NR 11.9614 99.2885 main 0 0 __________P___ -1 11.9614 99.2885 1 9 0
1958291N11103 1958 99 NI BB NOT_NAMED 1958-10-19 21:00:00 NR 12.4006 99.2695 main 0 0 __________P___ -1 12.4006 99.2695 1 9 348
1958291N11103 1958 99 NI BB NOT_NAMED 1958-10-20 00:00:00 NR 12.8000 99.1000 main 0 0 __________O___ -1 12.8000 99.1000 1 9 316
1958291N11103 1958 99 NI BB NOT_NAMED 1958-10-20 03:00:00 NR 13.0520 98.6199 main 0 0 __________P___ -1 13.0520 98.6199 1 12 293
1958291N11103 1958 99 NI BB NOT_NAMED 1958-10-20 06:00:00 NR 13.2591 97.9846 main 31 31 __________P___ -1 13.2591 97.9846 1 14 287
1958291N11103 1958 99 NI BB NOT_NAMED 1958-10-20 09:00:00 NR 13.4614 97.2820 main 87 87 __________P___ -1 13.4614 97.2820 1 14 288
1958291N11103 1958 99 NI BB NOT_NAMED 1958-10-20 12:00:00 NR 13.7000 96.6000 main 162 162 __________O___ -1 13.7000 96.6000 1 14 294
1958291N11103 1958 99 NI BB NOT_NAMED 1958-10-20 15:00:00 NR 14.0064 96.0068 main 197 145 __________P___ -1 14.0064 96.0068 1 13 302
1958291N11103 1958 99 NI BB NOT_NAMED 1958-10-20 18:00:00 NR 14.3717 95.4941 main 145 101 __________P___ -1 14.3717 95.4941 1 12 309
1958291N11103 1958 99 NI BB NOT_NAMED 1958-10-20 21:00:00 NR 14.7762 95.0342 main 100 68 __________P___ -1 14.7762 95.0342 1 12 314
1958291N11103 1958 99 NI BB NOT_NAMED 1958-10-21 00:00:00 NR 15.2000 94.6000 main 68 __________O___ -1 15.2000 94.6000 1 12 315

デジタル台風データ・検索

IBTrACS Databaseについて

本データベースは、米国NOAAが公開する1842年以降の世界の熱帯低気圧のベストトラックデータアーカイブInternational Best Track Archive for Climate Stewardship (IBTrACS)を、ウェブで閲覧しやすい形式に変換したものです。

最終更新日:2021-10-27